Royal Prince — WCX8037 — position and weather

sailwx.info

Track history (hours):
 
Tides and Currents Weather Stations Pressure Air Temp Water Temp Dewpoint Dewpoint Depression Visibility Wind Speed Wind Dir Waves Ship Positions

Royal Prince

Owner: Golden Gate Scenic Steamship Corp, SAN FRANCISCO, CA. More information available from US FCC via Universal Licensing System and Coast Guard Vessel Documentation Center.

Last reported at 2014-Oct-22 01:18 UTC. Time now 2014-Oct-22 09:38 UTC.
Position N 37°49' W 122°25'.

Length 28 m; draft 2.3 m.

Type: Passenger vessel. MMSI: 366975760.

Date/timePositionNaut miles runAvg speedWind from/ knotsBaromVisibWave heightAir tempDewpointWater temp
2014-Oct-22 01:18N 37°49' W 122°25'1 1.5
2014-Oct-22 00:34N 37°48' W 122°24'3 2.5
2014-Oct-21 23:33N 37°49' W 122°27'1 0.7
2014-Oct-21 22:33N 37°50' W 122°27'2 2.0
2014-Oct-21 21:33N 37°49' W 122°25'1 0.6
2014-Oct-21 20:34N 37°49' W 122°25'2 2.4
2014-Oct-21 19:33N 37°49' W 122°28'2 2.1
2014-Oct-21 18:33N 37°50' W 122°25'1 0.1
2014-Oct-21 00:34N 37°50' W 122°27'2 1.9
2014-Oct-20 23:34N 37°49' W 122°24'0 0.4
2014-Oct-20 22:34N 37°49' W 122°25'0 0.0
2014-Oct-20 21:34N 37°49' W 122°25'3 2.8
2014-Oct-20 20:34N 37°49' W 122°28'3 2.8
2014-Oct-20 19:34N 37°49' W 122°25'2 2.0
2014-Oct-20 18:32N 37°49' W 122°27'1 1.2
2014-Oct-20 17:33N 37°50' W 122°26'2 0.1
2014-Oct-20 01:13N 37°49' W 122°25'3 4.0
2014-Oct-20 00:33N 37°49' W 122°28'2 2.4
2014-Oct-19 23:34N 37°50' W 122°25'1 1.1
2014-Oct-19 22:33N 37°49' W 122°25'0 0.0
2014-Oct-19 21:34N 37°49' W 122°25'3 2.6
2014-Oct-19 20:34N 37°49' W 122°28'3 2.6
2014-Oct-19 19:34N 37°49' W 122°25'3 2.6
2014-Oct-19 18:33N 37°49' W 122°28'1 0.6
2014-Oct-19 17:33N 37°49' W 122°28'3 0.2
2014-Oct-19 01:04N 37°49' W 122°25'2 3.7
2014-Oct-19 00:33N 37°49' W 122°27'1 1.5
2014-Oct-18 23:33N 37°50' W 122°25'1 1.1
2014-Oct-18 22:33N 37°49' W 122°25'0 0.0
2014-Oct-18 21:33N 37°49' W 122°25'3 2.8
2014-Oct-18 20:33N 37°49' W 122°28'3 2.8
2014-Oct-18 19:33N 37°49' W 122°25'2 1.9
2014-Oct-18 18:33N 37°49' W 122°27'1 0.8
2014-Oct-18 17:33N 37°49' W 122°28'3 0.2
2014-Oct-18 03:10N 37°49' W 122°25'3 5.2
2014-Oct-18 02:33N 37°49' W 122°29'4 4.1
2014-Oct-18 01:33N 37°52' W 122°25'3 3.4
2014-Oct-18 00:33N 37°49' W 122°25'0 0.0
2014-Oct-17 23:33N 37°49' W 122°25'1 1.1
2014-Oct-17 22:33N 37°48' W 122°24'2 2.4
2014-Oct-17 21:33N 37°49' W 122°26'3 2.7
2014-Oct-17 20:33N 37°48' W 122°23'1 1.5
2014-Oct-17 19:33N 37°49' W 122°25'0 0.0
2014-Oct-17 01:09N 37°49' W 122°25'2 4.0
2014-Oct-17 00:33N 37°49' W 122°28'2 1.9
2014-Oct-16 23:33N 37°50' W 122°25'1 1.3
2014-Oct-16 22:33N 37°49' W 122°25'0 0.0
2014-Oct-16 21:33N 37°49' W 122°25'3 3.1
2014-Oct-16 20:33N 37°49' W 122°29'3 3.1
2014-Oct-16 19:33N 37°49' W 122°25'3 2.5
2014-Oct-16 18:33N 37°49' W 122°28'1 0.8
2014-Oct-16 17:33N 37°49' W 122°27'2 0.1
2014-Oct-16 01:07N 37°49' W 122°25'2 4.0
2014-Oct-16 00:33N 37°49' W 122°28'2 2.3
2014-Oct-15 23:33N 37°49' W 122°25'1 0.8
2014-Oct-15 22:33N 37°49' W 122°25'0 0.1
2014-Oct-15 21:33N 37°49' W 122°25'3 3.0
2014-Oct-15 20:33N 37°49' W 122°29'3 3.1
2014-Oct-15 19:33N 37°49' W 122°25'2 1.8
2014-Oct-15 18:33N 37°49' W 122°27'1 1.1
2014-Oct-15 17:33N 37°50' W 122°28'4 0.2
2014-Oct-15 00:33N 37°48' W 122°24'2 2.1
2014-Oct-14 23:33N 37°49' W 122°26'1 1.3
2014-Oct-14 22:33N 37°50' W 122°27'3 2.6
2014-Oct-14 21:33N 37°49' W 122°24'1 0.7
2014-Oct-14 20:33N 37°49' W 122°25'3 2.9
2014-Oct-14 19:33N 37°49' W 122°28'3 2.6
2014-Oct-14 18:33N 37°50' W 122°25'1 0.6
2014-Oct-14 16:33N 37°49' W 122°25'0 0.0
2014-Oct-14 01:14N 37°49' W 122°25'2 2.5
2014-Oct-14 00:33N 37°50' W 122°27'2 1.7
2014-Oct-13 23:33N 37°49' W 122°25'1 0.6
2014-Oct-13 22:33N 37°49' W 122°25'0 0.1
2014-Oct-13 21:33N 37°49' W 122°25'3 3.0
2014-Oct-13 20:34N 37°49' W 122°29'3 3.0
2014-Oct-13 19:33N 37°49' W 122°25'2 2.0
2014-Oct-13 18:33N 37°49' W 122°27'1 1.2
2014-Oct-13 17:33N 37°50' W 122°26'2 0.1
2014-Oct-13 01:22N 37°49' W 122°25'2 2.5
2014-Oct-13 00:34N 37°49' W 122°27'1 0.6
2014-Oct-12 23:34N 37°49' W 122°27'2 2.2
2014-Oct-12 22:33N 37°49' W 122°24'1 0.9
2014-Oct-12 21:33N 37°49' W 122°25'1 1.1
2014-Oct-12 20:33N 37°49' W 122°26'1 1.1
2014-Oct-12 19:33N 37°49' W 122°25'1 0.5
2014-Oct-12 18:24N 37°49' W 122°26'2 1.8
2014-Oct-12 17:31N 37°50' W 122°27'2 2.2
2014-Oct-12 16:33N 37°49' W 122°25'0 0.0
2014-Oct-12 15:33N 37°49' W 122°25'  
Track history (hours):
 
Tides and Currents Weather Stations Pressure Air Temp Water Temp Dewpoint Dewpoint Depression Visibility Wind Speed Wind Dir Waves Ship Positions

Royal Prince

Owner: Golden Gate Scenic Steamship Corp, SAN FRANCISCO, CA. More information available from US FCC via Universal Licensing System and Coast Guard Vessel Documentation Center.

Last reported at 2014-Oct-22 01:18 UTC. Time now 2014-Oct-22 09:38 UTC.
Position N 37°49' W 122°25'.

Length 28 m; draft 2.3 m.

Type: Passenger vessel. MMSI: 366975760.

Date/timePositionNaut miles runAvg speedWind from/ knotsBaromVisibWave heightAir tempDewpointWater temp
2014-Oct-22 01:18N 37°49' W 122°25'1 1.5
2014-Oct-22 00:34N 37°48' W 122°24'3 2.5
2014-Oct-21 23:33N 37°49' W 122°27'1 0.7
2014-Oct-21 22:33N 37°50' W 122°27'2 2.0
2014-Oct-21 21:33N 37°49' W 122°25'1 0.6
2014-Oct-21 20:34N 37°49' W 122°25'2 2.4
2014-Oct-21 19:33N 37°49' W 122°28'2 2.1
2014-Oct-21 18:33N 37°50' W 122°25'1 0.1
2014-Oct-21 00:34N 37°50' W 122°27'2 1.9
2014-Oct-20 23:34N 37°49' W 122°24'0 0.4
2014-Oct-20 22:34N 37°49' W 122°25'0 0.0
2014-Oct-20 21:34N 37°49' W 122°25'3 2.8
2014-Oct-20 20:34N 37°49' W 122°28'3 2.8
2014-Oct-20 19:34N 37°49' W 122°25'2 2.0
2014-Oct-20 18:32N 37°49' W 122°27'1 1.2
2014-Oct-20 17:33N 37°50' W 122°26'2 0.1
2014-Oct-20 01:13N 37°49' W 122°25'3 4.0
2014-Oct-20 00:33N 37°49' W 122°28'2 2.4
2014-Oct-19 23:34N 37°50' W 122°25'1 1.1
2014-Oct-19 22:33N 37°49' W 122°25'0 0.0
2014-Oct-19 21:34N 37°49' W 122°25'3 2.6
2014-Oct-19 20:34N 37°49' W 122°28'3 2.6
2014-Oct-19 19:34N 37°49' W 122°25'3 2.6
2014-Oct-19 18:33N 37°49' W 122°28'1 0.6
2014-Oct-19 17:33N 37°49' W 122°28'3 0.2
2014-Oct-19 01:04N 37°49' W 122°25'2 3.7
2014-Oct-19 00:33N 37°49' W 122°27'1 1.5
2014-Oct-18 23:33N 37°50' W 122°25'1 1.1
2014-Oct-18 22:33N 37°49' W 122°25'0 0.0
2014-Oct-18 21:33N 37°49' W 122°25'3 2.8
2014-Oct-18 20:33N 37°49' W 122°28'3 2.8
2014-Oct-18 19:33N 37°49' W 122°25'2 1.9
2014-Oct-18 18:33N 37°49' W 122°27'1 0.8
2014-Oct-18 17:33N 37°49' W 122°28'3 0.2
2014-Oct-18 03:10N 37°49' W 122°25'3 5.2
2014-Oct-18 02:33N 37°49' W 122°29'4 4.1
2014-Oct-18 01:33N 37°52' W 122°25'3 3.4
2014-Oct-18 00:33N 37°49' W 122°25'0 0.0
2014-Oct-17 23:33N 37°49' W 122°25'1 1.1
2014-Oct-17 22:33N 37°48' W 122°24'2 2.4
2014-Oct-17 21:33N 37°49' W 122°26'3 2.7
2014-Oct-17 20:33N 37°48' W 122°23'1 1.5
2014-Oct-17 19:33N 37°49' W 122°25'0 0.0
2014-Oct-17 01:09N 37°49' W 122°25'2 4.0
2014-Oct-17 00:33N 37°49' W 122°28'2 1.9
2014-Oct-16 23:33N 37°50' W 122°25'1 1.3
2014-Oct-16 22:33N 37°49' W 122°25'0 0.0
2014-Oct-16 21:33N 37°49' W 122°25'3 3.1
2014-Oct-16 20:33N 37°49' W 122°29'3 3.1
2014-Oct-16 19:33N 37°49' W 122°25'3 2.5
2014-Oct-16 18:33N 37°49' W 122°28'1 0.8
2014-Oct-16 17:33N 37°49' W 122°27'2 0.1
2014-Oct-16 01:07N 37°49' W 122°25'2 4.0
2014-Oct-16 00:33N 37°49' W 122°28'2 2.3
2014-Oct-15 23:33N 37°49' W 122°25'1 0.8
2014-Oct-15 22:33N 37°49' W 122°25'0 0.1
2014-Oct-15 21:33N 37°49' W 122°25'3 3.0
2014-Oct-15 20:33N 37°49' W 122°29'3 3.1
2014-Oct-15 19:33N 37°49' W 122°25'2 1.8
2014-Oct-15 18:33N 37°49' W 122°27'1 1.1
2014-Oct-15 17:33N 37°50' W 122°28'4 0.2
2014-Oct-15 00:33N 37°48' W 122°24'2 2.1
2014-Oct-14 23:33N 37°49' W 122°26'1 1.3
2014-Oct-14 22:33N 37°50' W 122°27'3 2.6
2014-Oct-14 21:33N 37°49' W 122°24'1 0.7
2014-Oct-14 20:33N 37°49' W 122°25'3 2.9
2014-Oct-14 19:33N 37°49' W 122°28'3 2.6
2014-Oct-14 18:33N 37°50' W 122°25'1 0.6
2014-Oct-14 16:33N 37°49' W 122°25'0 0.0
2014-Oct-14 01:14N 37°49' W 122°25'2 2.5
2014-Oct-14 00:33N 37°50' W 122°27'2 1.7
2014-Oct-13 23:33N 37°49' W 122°25'1 0.6
2014-Oct-13 22:33N 37°49' W 122°25'0 0.1
2014-Oct-13 21:33N 37°49' W 122°25'3 3.0
2014-Oct-13 20:34N 37°49' W 122°29'3 3.0
2014-Oct-13 19:33N 37°49' W 122°25'2 2.0
2014-Oct-13 18:33N 37°49' W 122°27'1 1.2
2014-Oct-13 17:33N 37°50' W 122°26'2 0.1
2014-Oct-13 01:22N 37°49' W 122°25'2 2.5
2014-Oct-13 00:34N 37°49' W 122°27'1 0.6
2014-Oct-12 23:34N 37°49' W 122°27'2 2.2
2014-Oct-12 22:33N 37°49' W 122°24'1 0.9
2014-Oct-12 21:33N 37°49' W 122°25'1 1.1
2014-Oct-12 20:33N 37°49' W 122°26'1 1.1
2014-Oct-12 19:33N 37°49' W 122°25'1 0.5
2014-Oct-12 18:24N 37°49' W 122°26'2 1.8
2014-Oct-12 17:31N 37°50' W 122°27'2 2.2
2014-Oct-12 16:33N 37°49' W 122°25'0 0.0
2014-Oct-12 15:33N 37°49' W 122°25'  

Dump ship's entire track history